sensor_id;sensor_type;location;lat;lon;timestamp;temperature;humidity
27823;DHT22;29019;47.630;8.262;2023-03-29T00:00:44;19.90;32.60
27823;DHT22;29019;47.630;8.262;2023-03-29T00:04:44;19.90;32.60
27823;DHT22;29019;47.630;8.262;2023-03-29T00:08:45;19.90;32.70
27823;DHT22;29019;47.630;8.262;2023-03-29T00:12:45;19.90;32.70
27823;DHT22;29019;47.630;8.262;2023-03-29T00:16:46;19.90;32.70
27823;DHT22;29019;47.630;8.262;2023-03-29T00:20:53;19.80;32.60
27823;DHT22;29019;47.630;8.262;2023-03-29T00:24:54;19.80;32.60
27823;DHT22;29019;47.630;8.262;2023-03-29T00:28:54;19.80;32.60
27823;DHT22;29019;47.630;8.262;2023-03-29T00:32:55;19.80;33.20
27823;DHT22;29019;47.630;8.262;2023-03-29T00:36:56;19.80;32.70
27823;DHT22;29019;47.630;8.262;2023-03-29T00:40:57;19.80;32.70
27823;DHT22;29019;47.630;8.262;2023-03-29T00:45:06;19.80;32.70
27823;DHT22;29019;47.630;8.262;2023-03-29T00:49:08;19.80;32.70
27823;DHT22;29019;47.630;8.262;2023-03-29T00:53:13;19.80;32.80
27823;DHT22;29019;47.630;8.262;2023-03-29T00:57:16;19.70;32.70
27823;DHT22;29019;47.630;8.262;2023-03-29T01:01:20;19.70;32.70
27823;DHT22;29019;47.630;8.262;2023-03-29T01:05:27;19.80;32.80
27823;DHT22;29019;47.630;8.262;2023-03-29T01:09:30;19.70;32.70
27823;DHT22;29019;47.630;8.262;2023-03-29T01:13:34;19.70;32.80
27823;DHT22;29019;47.630;8.262;2023-03-29T01:17:35;19.70;32.80
27823;DHT22;29019;47.630;8.262;2023-03-29T01:21:40;19.70;32.80
27823;DHT22;29019;47.630;8.262;2023-03-29T01:30:04;19.70;32.80
27823;DHT22;29019;47.630;8.262;2023-03-29T01:34:11;19.70;32.90
27823;DHT22;29019;47.630;8.262;2023-03-29T01:38:25;19.70;33.00
27823;DHT22;29019;47.630;8.262;2023-03-29T01:42:29;19.60;32.80
27823;DHT22;29019;47.630;8.262;2023-03-29T01:46:38;19.60;32.80
27823;DHT22;29019;47.630;8.262;2023-03-29T01:50:41;19.60;32.80
27823;DHT22;29019;47.630;8.262;2023-03-29T01:54:49;19.60;32.90
27823;DHT22;29019;47.630;8.262;2023-03-29T01:58:52;19.60;32.90
27823;DHT22;29019;47.630;8.262;2023-03-29T02:02:53;19.60;32.90
27823;DHT22;29019;47.630;8.262;2023-03-29T02:06:54;19.60;32.90
27823;DHT22;29019;47.630;8.262;2023-03-29T02:10:56;19.60;32.90
27823;DHT22;29019;47.630;8.262;2023-03-29T02:14:57;19.60;32.90
27823;DHT22;29019;47.630;8.262;2023-03-29T02:18:58;19.60;33.00
27823;DHT22;29019;47.630;8.262;2023-03-29T02:23:12;19.60;33.00
27823;DHT22;29019;47.630;8.262;2023-03-29T02:27:14;19.60;33.00
27823;DHT22;29019;47.630;8.262;2023-03-29T02:31:58;19.50;32.90
27823;DHT22;29019;47.630;8.262;2023-03-29T02:35:44;19.50;32.90
27823;DHT22;29019;47.630;8.262;2023-03-29T02:39:47;19.50;32.90
27823;DHT22;29019;47.630;8.262;2023-03-29T02:43:48;19.50;33.00
27823;DHT22;29019;47.630;8.262;2023-03-29T02:47:50;19.50;33.00
27823;DHT22;29019;47.630;8.262;2023-03-29T02:51:54;19.50;33.00
27823;DHT22;29019;47.630;8.262;2023-03-29T02:55:56;19.50;33.00
27823;DHT22;29019;47.630;8.262;2023-03-29T02:59:57;19.50;33.00
27823;DHT22;29019;47.630;8.262;2023-03-29T03:03:57;19.50;33.00
27823;DHT22;29019;47.630;8.262;2023-03-29T03:07:58;19.40;33.00
27823;DHT22;29019;47.630;8.262;2023-03-29T03:11:58;19.50;33.00
27823;DHT22;29019;47.630;8.262;2023-03-29T03:15:59;19.40;32.90
27823;DHT22;29019;47.630;8.262;2023-03-29T03:20:00;19.40;32.90
27823;DHT22;29019;47.630;8.262;2023-03-29T03:24:00;19.50;33.00
27823;DHT22;29019;47.630;8.262;2023-03-29T03:28:01;19.40;33.00
27823;DHT22;29019;47.630;8.262;2023-03-29T03:32:01;19.40;32.90
27823;DHT22;29019;47.630;8.262;2023-03-29T03:36:03;19.40;32.90
27823;DHT22;29019;47.630;8.262;2023-03-29T03:40:05;19.40;33.00
27823;DHT22;29019;47.630;8.262;2023-03-29T03:44:07;19.40;33.00
27823;DHT22;29019;47.630;8.262;2023-03-29T03:48:07;19.40;33.00
27823;DHT22;29019;47.630;8.262;2023-03-29T03:52:08;19.40;33.00
27823;DHT22;29019;47.630;8.262;2023-03-29T03:56:09;19.50;33.00
27823;DHT22;29019;47.630;8.262;2023-03-29T04:00:09;19.40;33.00
27823;DHT22;29019;47.630;8.262;2023-03-29T04:04:20;19.50;33.00
27823;DHT22;29019;47.630;8.262;2023-03-29T04:08:21;19.50;33.00
27823;DHT22;29019;47.630;8.262;2023-03-29T04:12:21;19.50;33.00
27823;DHT22;29019;47.630;8.262;2023-03-29T04:16:22;19.60;33.00
27823;DHT22;29019;47.630;8.262;2023-03-29T04:20:23;19.70;33.00
27823;DHT22;29019;47.630;8.262;2023-03-29T04:24:23;19.80;33.00
27823;DHT22;29019;47.630;8.262;2023-03-29T04:28:24;19.90;33.00
27823;DHT22;29019;47.630;8.262;2023-03-29T04:32:24;19.90;32.90
27823;DHT22;29019;47.630;8.262;2023-03-29T04:36:25;20.00;32.80
27823;DHT22;29019;47.630;8.262;2023-03-29T04:40:25;20.10;32.70
27823;DHT22;29019;47.630;8.262;2023-03-29T04:44:26;20.20;32.80
27823;DHT22;29019;47.630;8.262;2023-03-29T04:48:27;20.30;32.70
27823;DHT22;29019;47.630;8.262;2023-03-29T04:52:29;20.30;32.70
27823;DHT22;29019;47.630;8.262;2023-03-29T04:56:32;20.30;32.70
27823;DHT22;29019;47.630;8.262;2023-03-29T05:00:32;20.30;32.80
27823;DHT22;29019;47.630;8.262;2023-03-29T05:04:34;20.30;32.70
27823;DHT22;29019;47.630;8.262;2023-03-29T05:08:35;20.30;32.70
27823;DHT22;29019;47.630;8.262;2023-03-29T05:12:38;20.30;32.70
27823;DHT22;29019;47.630;8.262;2023-03-29T05:16:39;20.30;32.70
27823;DHT22;29019;47.630;8.262;2023-03-29T05:20:40;20.20;32.70
27823;DHT22;29019;47.630;8.262;2023-03-29T05:24:41;20.20;32.70
27823;DHT22;29019;47.630;8.262;2023-03-29T05:28:41;20.20;32.90
27823;DHT22;29019;47.630;8.262;2023-03-29T05:32:42;20.20;32.80
27823;DHT22;29019;47.630;8.262;2023-03-29T05:36:42;20.20;32.80
27823;DHT22;29019;47.630;8.262;2023-03-29T05:40:44;20.20;32.90
27823;DHT22;29019;47.630;8.262;2023-03-29T05:44:45;20.20;32.90
27823;DHT22;29019;47.630;8.262;2023-03-29T05:48:45;20.10;32.90
27823;DHT22;29019;47.630;8.262;2023-03-29T05:52:46;20.10;33.00
27823;DHT22;29019;47.630;8.262;2023-03-29T05:56:47;20.20;33.00
27823;DHT22;29019;47.630;8.262;2023-03-29T06:00:48;20.20;33.00
27823;DHT22;29019;47.630;8.262;2023-03-29T06:04:49;20.20;33.00
27823;DHT22;29019;47.630;8.262;2023-03-29T06:08:49;20.30;33.00
27823;DHT22;29019;47.630;8.262;2023-03-29T06:12:50;20.30;32.90
27823;DHT22;29019;47.630;8.262;2023-03-29T06:16:50;20.40;32.90
27823;DHT22;29019;47.630;8.262;2023-03-29T06:20:51;20.40;32.80
27823;DHT22;29019;47.630;8.262;2023-03-29T06:24:52;20.40;32.80
27823;DHT22;29019;47.630;8.262;2023-03-29T06:28:53;20.40;32.80
27823;DHT22;29019;47.630;8.262;2023-03-29T06:32:53;20.50;32.80
27823;DHT22;29019;47.630;8.262;2023-03-29T06:36:54;20.50;32.80
27823;DHT22;29019;47.630;8.262;2023-03-29T06:40:59;20.50;32.70
27823;DHT22;29019;47.630;8.262;2023-03-29T06:44:59;20.50;32.80
27823;DHT22;29019;47.630;8.262;2023-03-29T06:48:59;20.50;32.80
27823;DHT22;29019;47.630;8.262;2023-03-29T06:53:01;20.50;32.80
27823;DHT22;29019;47.630;8.262;2023-03-29T06:57:01;20.50;32.90
27823;DHT22;29019;47.630;8.262;2023-03-29T07:01:03;20.40;32.80
27823;DHT22;29019;47.630;8.262;2023-03-29T07:05:04;20.40;32.80
27823;DHT22;29019;47.630;8.262;2023-03-29T07:09:10;20.40;32.90
27823;DHT22;29019;47.630;8.262;2023-03-29T07:13:12;20.30;32.90
27823;DHT22;29019;47.630;8.262;2023-03-29T07:17:13;20.30;32.90
27823;DHT22;29019;47.630;8.262;2023-03-29T07:21:14;20.30;32.90
27823;DHT22;29019;47.630;8.262;2023-03-29T07:25:14;20.30;33.00
27823;DHT22;29019;47.630;8.262;2023-03-29T07:29:16;20.30;32.90
27823;DHT22;29019;47.630;8.262;2023-03-29T07:33:17;20.20;32.80
27823;DHT22;29019;47.630;8.262;2023-03-29T07:37:17;20.30;32.90
27823;DHT22;29019;47.630;8.262;2023-03-29T07:41:18;20.20;32.90
27823;DHT22;29019;47.630;8.262;2023-03-29T07:45:18;20.20;33.00
27823;DHT22;29019;47.630;8.262;2023-03-29T07:49:20;20.20;33.50
27823;DHT22;29019;47.630;8.262;2023-03-29T07:53:20;20.20;32.90
27823;DHT22;29019;47.630;8.262;2023-03-29T07:57:21;20.20;32.90
27823;DHT22;29019;47.630;8.262;2023-03-29T08:01:21;20.20;33.00
27823;DHT22;29019;47.630;8.262;2023-03-29T08:05:22;20.20;32.90
27823;DHT22;29019;47.630;8.262;2023-03-29T08:09:22;20.20;33.00
27823;DHT22;29019;47.630;8.262;2023-03-29T08:13:23;20.20;33.00
27823;DHT22;29019;47.630;8.262;2023-03-29T08:17:23;20.20;33.00
27823;DHT22;29019;47.630;8.262;2023-03-29T08:21:24;20.20;33.00
27823;DHT22;29019;47.630;8.262;2023-03-29T08:25:24;20.20;33.00
27823;DHT22;29019;47.630;8.262;2023-03-29T08:29:25;20.20;33.00
27823;DHT22;29019;47.630;8.262;2023-03-29T08:33:26;20.20;33.00
27823;DHT22;29019;47.630;8.262;2023-03-29T08:37:26;20.20;32.90
27823;DHT22;29019;47.630;8.262;2023-03-29T08:45:52;20.20;32.90
27823;DHT22;29019;47.630;8.262;2023-03-29T08:49:56;20.20;32.90
27823;DHT22;29019;47.630;8.262;2023-03-29T08:53:58;20.20;32.90
27823;DHT22;29019;47.630;8.262;2023-03-29T08:58:00;20.20;32.90
27823;DHT22;29019;47.630;8.262;2023-03-29T09:02:02;20.20;32.90
27823;DHT22;29019;47.630;8.262;2023-03-29T09:06:04;20.20;32.90
27823;DHT22;29019;47.630;8.262;2023-03-29T09:10:08;20.20;32.90
27823;DHT22;29019;47.630;8.262;2023-03-29T09:14:18;20.20;32.90
27823;DHT22;29019;47.630;8.262;2023-03-29T09:18:33;20.20;33.00
27823;DHT22;29019;47.630;8.262;2023-03-29T09:27:05;20.20;32.90
27823;DHT22;29019;47.630;8.262;2023-03-29T09:31:12;20.20;33.00
27823;DHT22;29019;47.630;8.262;2023-03-29T09:35:16;20.20;33.00
27823;DHT22;29019;47.630;8.262;2023-03-29T09:39:18;20.20;33.00
27823;DHT22;29019;47.630;8.262;2023-03-29T09:43:29;20.20;33.00
27823;DHT22;29019;47.630;8.262;2023-03-29T09:47:35;20.20;33.00
27823;DHT22;29019;47.630;8.262;2023-03-29T09:51:37;20.20;33.00
27823;DHT22;29019;47.630;8.262;2023-03-29T09:55:37;20.20;33.00
27823;DHT22;29019;47.630;8.262;2023-03-29T09:59:39;20.20;33.00
27823;DHT22;29019;47.630;8.262;2023-03-29T10:03:40;20.20;33.10
27823;DHT22;29019;47.630;8.262;2023-03-29T10:07:44;20.20;33.10
27823;DHT22;29019;47.630;8.262;2023-03-29T10:11:46;20.20;33.10
27823;DHT22;29019;47.630;8.262;2023-03-29T10:15:59;20.20;33.00
27823;DHT22;29019;47.630;8.262;2023-03-29T10:20:02;20.20;33.10
27823;DHT22;29019;47.630;8.262;2023-03-29T10:24:03;20.20;33.10
27823;DHT22;29019;47.630;8.262;2023-03-29T10:28:11;20.20;33.00
27823;DHT22;29019;47.630;8.262;2023-03-29T10:36:22;20.20;33.00
27823;DHT22;29019;47.630;8.262;2023-03-29T10:40:29;20.30;33.10
27823;DHT22;29019;47.630;8.262;2023-03-29T10:44:31;20.30;33.00
27823;DHT22;29019;47.630;8.262;2023-03-29T10:48:33;20.30;33.00
27823;DHT22;29019;47.630;8.262;2023-03-29T10:52:34;20.30;33.00
27823;DHT22;29019;47.630;8.262;2023-03-29T10:56:36;20.30;33.00
27823;DHT22;29019;47.630;8.262;2023-03-29T11:00:41;20.20;33.00
27823;DHT22;29019;47.630;8.262;2023-03-29T11:09:00;20.30;33.00
27823;DHT22;29019;47.630;8.262;2023-03-29T11:17:30;20.30;33.00
27823;DHT22;29019;47.630;8.262;2023-03-29T11:21:37;20.40;33.00
27823;DHT22;29019;47.630;8.262;2023-03-29T11:25:44;20.40;33.10
27823;DHT22;29019;47.630;8.262;2023-03-29T11:34:01;20.40;33.00
27823;DHT22;29019;47.630;8.262;2023-03-29T11:42:25;20.40;33.00
27823;DHT22;29019;47.630;8.262;2023-03-29T11:46:32;20.40;33.00
27823;DHT22;29019;47.630;8.262;2023-03-29T11:50:37;20.50;33.00
27823;DHT22;29019;47.630;8.262;2023-03-29T11:54:42;20.50;33.00
27823;DHT22;29019;47.630;8.262;2023-03-29T11:58:47;20.50;33.00
27823;DHT22;29019;47.630;8.262;2023-03-29T12:02:54;20.50;32.90
27823;DHT22;29019;47.630;8.262;2023-03-29T12:07:03;20.50;32.90
27823;DHT22;29019;47.630;8.262;2023-03-29T12:15:09;20.60;32.90
27823;DHT22;29019;47.630;8.262;2023-03-29T12:19:16;20.60;32.90
27823;DHT22;29019;47.630;8.262;2023-03-29T12:23:18;20.60;32.90
27823;DHT22;29019;47.630;8.262;2023-03-29T12:31:33;20.50;32.80
27823;DHT22;29019;47.630;8.262;2023-03-29T12:35:57;20.60;32.90
27823;DHT22;29019;47.630;8.262;2023-03-29T12:40:15;20.60;32.90
27823;DHT22;29019;47.630;8.262;2023-03-29T12:44:19;20.60;32.80
27823;DHT22;29019;47.630;8.262;2023-03-29T12:48:24;20.60;32.80
27823;DHT22;29019;47.630;8.262;2023-03-29T12:52:29;20.60;32.80
27823;DHT22;29019;47.630;8.262;2023-03-29T12:56:34;20.60;32.80
27823;DHT22;29019;47.630;8.262;2023-03-29T13:04:37;20.70;32.80
27823;DHT22;29019;47.630;8.262;2023-03-29T13:08:42;20.60;32.80
27823;DHT22;29019;47.630;8.262;2023-03-29T13:12:43;20.70;32.80
27823;DHT22;29019;47.630;8.262;2023-03-29T13:16:45;20.60;32.90
27823;DHT22;29019;47.630;8.262;2023-03-29T13:24:55;20.60;32.80
27823;DHT22;29019;47.630;8.262;2023-03-29T13:29:08;20.70;33.40
27823;DHT22;29019;47.630;8.262;2023-03-29T13:37:42;20.70;32.80
27823;DHT22;29019;47.630;8.262;2023-03-29T13:41:51;20.60;32.80
27823;DHT22;29019;47.630;8.262;2023-03-29T13:49:55;20.70;32.90
27823;DHT22;29019;47.630;8.262;2023-03-29T13:54:02;20.70;32.90
27823;DHT22;29019;47.630;8.262;2023-03-29T14:06:33;20.70;32.90
27823;DHT22;29019;47.630;8.262;2023-03-29T14:10:39;20.70;32.80
27823;DHT22;29019;47.630;8.262;2023-03-29T14:14:41;20.70;32.80
27823;DHT22;29019;47.630;8.262;2023-03-29T14:18:42;20.70;32.80
27823;DHT22;29019;47.630;8.262;2023-03-29T14:22:45;20.70;32.80
27823;DHT22;29019;47.630;8.262;2023-03-29T14:26:46;20.70;32.80
27823;DHT22;29019;47.630;8.262;2023-03-29T14:30:46;20.70;32.80
27823;DHT22;29019;47.630;8.262;2023-03-29T14:34:47;20.70;32.70
27823;DHT22;29019;47.630;8.262;2023-03-29T14:38:49;20.70;32.80
27823;DHT22;29019;47.630;8.262;2023-03-29T14:42:50;20.70;33.40
27823;DHT22;29019;47.630;8.262;2023-03-29T14:46:50;20.70;32.80
27823;DHT22;29019;47.630;8.262;2023-03-29T14:50:51;20.70;32.60
27823;DHT22;29019;47.630;8.262;2023-03-29T14:54:52;20.70;32.60
27823;DHT22;29019;47.630;8.262;2023-03-29T14:58:55;20.70;32.70
27823;DHT22;29019;47.630;8.262;2023-03-29T15:03:00;20.70;32.60
27823;DHT22;29019;47.630;8.262;2023-03-29T15:07:01;20.70;32.60
27823;DHT22;29019;47.630;8.262;2023-03-29T15:11:02;20.70;32.80
27823;DHT22;29019;47.630;8.262;2023-03-29T15:15:10;20.80;32.90
27823;DHT22;29019;47.630;8.262;2023-03-29T15:19:12;20.80;32.80
27823;DHT22;29019;47.630;8.262;2023-03-29T15:27:16;21.00;32.70
27823;DHT22;29019;47.630;8.262;2023-03-29T15:31:18;21.00;32.60
27823;DHT22;29019;47.630;8.262;2023-03-29T15:35:22;21.10;32.80
27823;DHT22;29019;47.630;8.262;2023-03-29T15:39:23;21.10;32.80
27823;DHT22;29019;47.630;8.262;2023-03-29T15:43:24;21.20;32.70
27823;DHT22;29019;47.630;8.262;2023-03-29T15:47:25;21.20;32.70
27823;DHT22;29019;47.630;8.262;2023-03-29T15:51:27;21.30;32.70
27823;DHT22;29019;47.630;8.262;2023-03-29T15:55:27;21.30;32.70
27823;DHT22;29019;47.630;8.262;2023-03-29T15:59:32;21.30;32.70
27823;DHT22;29019;47.630;8.262;2023-03-29T16:03:32;21.30;32.70
27823;DHT22;29019;47.630;8.262;2023-03-29T16:07:33;21.40;32.60
27823;DHT22;29019;47.630;8.262;2023-03-29T16:11:33;21.40;32.60
27823;DHT22;29019;47.630;8.262;2023-03-29T16:15:34;21.40;32.60
27823;DHT22;29019;47.630;8.262;2023-03-29T16:19:36;21.40;32.60
27823;DHT22;29019;47.630;8.262;2023-03-29T16:23:36;21.40;33.10
27823;DHT22;29019;47.630;8.262;2023-03-29T16:27:37;21.40;32.60
27823;DHT22;29019;47.630;8.262;2023-03-29T16:31:37;21.40;32.50
27823;DHT22;29019;47.630;8.262;2023-03-29T16:35:38;21.30;32.50
27823;DHT22;29019;47.630;8.262;2023-03-29T16:39:39;21.30;32.60
27823;DHT22;29019;47.630;8.262;2023-03-29T16:43:39;21.30;32.60
27823;DHT22;29019;47.630;8.262;2023-03-29T16:47:40;21.30;32.70
27823;DHT22;29019;47.630;8.262;2023-03-29T16:51:44;21.20;32.80
27823;DHT22;29019;47.630;8.262;2023-03-29T16:55:46;21.30;32.80
27823;DHT22;29019;47.630;8.262;2023-03-29T16:59:46;21.30;32.80
27823;DHT22;29019;47.630;8.262;2023-03-29T17:03:47;21.30;32.80
27823;DHT22;29019;47.630;8.262;2023-03-29T17:07:47;21.20;32.80
27823;DHT22;29019;47.630;8.262;2023-03-29T17:11:47;21.20;32.80
27823;DHT22;29019;47.630;8.262;2023-03-29T17:15:48;21.20;32.80
27823;DHT22;29019;47.630;8.262;2023-03-29T17:19:51;21.20;32.80
27823;DHT22;29019;47.630;8.262;2023-03-29T17:23:51;21.20;32.80
27823;DHT22;29019;47.630;8.262;2023-03-29T17:27:52;21.20;32.80
27823;DHT22;29019;47.630;8.262;2023-03-29T17:31:53;21.20;32.80
27823;DHT22;29019;47.630;8.262;2023-03-29T17:35:53;21.20;32.90
27823;DHT22;29019;47.630;8.262;2023-03-29T17:39:55;21.20;32.90
27823;DHT22;29019;47.630;8.262;2023-03-29T17:43:55;21.20;32.90
27823;DHT22;29019;47.630;8.262;2023-03-29T17:47:55;21.20;32.90
27823;DHT22;29019;47.630;8.262;2023-03-29T17:51:56;21.20;32.90
27823;DHT22;29019;47.630;8.262;2023-03-29T17:55:57;21.20;32.90
27823;DHT22;29019;47.630;8.262;2023-03-29T17:59:57;21.20;32.90
27823;DHT22;29019;47.630;8.262;2023-03-29T18:03:57;21.20;33.00
27823;DHT22;29019;47.630;8.262;2023-03-29T18:07:58;21.20;33.00
27823;DHT22;29019;47.630;8.262;2023-03-29T18:11:58;21.20;33.10
27823;DHT22;29019;47.630;8.262;2023-03-29T18:15:59;21.20;33.10
27823;DHT22;29019;47.630;8.262;2023-03-29T18:19:59;21.20;33.10
27823;DHT22;29019;47.630;8.262;2023-03-29T18:24:00;21.20;33.10
27823;DHT22;29019;47.630;8.262;2023-03-29T18:28:00;21.20;33.10
27823;DHT22;29019;47.630;8.262;2023-03-29T18:32:01;21.20;33.10
27823;DHT22;29019;47.630;8.262;2023-03-29T18:36:05;21.20;33.10
27823;DHT22;29019;47.630;8.262;2023-03-29T18:40:06;21.20;33.10
27823;DHT22;29019;47.630;8.262;2023-03-29T18:44:07;21.20;33.20
27823;DHT22;29019;47.630;8.262;2023-03-29T18:48:08;21.10;33.20
27823;DHT22;29019;47.630;8.262;2023-03-29T18:52:08;21.20;33.30
27823;DHT22;29019;47.630;8.262;2023-03-29T18:56:09;21.10;33.10
27823;DHT22;29019;47.630;8.262;2023-03-29T19:00:10;21.10;33.20
27823;DHT22;29019;47.630;8.262;2023-03-29T19:04:14;21.20;33.40
27823;DHT22;29019;47.630;8.262;2023-03-29T19:08:15;21.20;33.30
27823;DHT22;29019;47.630;8.262;2023-03-29T19:12:15;21.20;33.40
27823;DHT22;29019;47.630;8.262;2023-03-29T19:16:16;21.20;33.90
27823;DHT22;29019;47.630;8.262;2023-03-29T19:20:16;21.20;33.30
27823;DHT22;29019;47.630;8.262;2023-03-29T19:24:17;21.20;33.40
27823;DHT22;29019;47.630;8.262;2023-03-29T19:28:17;21.10;33.40
27823;DHT22;29019;47.630;8.262;2023-03-29T19:32:18;21.10;33.30
27823;DHT22;29019;47.630;8.262;2023-03-29T19:36:18;21.10;33.40
27823;DHT22;29019;47.630;8.262;2023-03-29T19:40:19;21.10;33.50
27823;DHT22;29019;47.630;8.262;2023-03-29T19:44:20;21.20;33.60
27823;DHT22;29019;47.630;8.262;2023-03-29T19:48:22;21.10;33.60
27823;DHT22;29019;47.630;8.262;2023-03-29T19:52:23;21.10;33.50
27823;DHT22;29019;47.630;8.262;2023-03-29T19:56:24;21.10;33.50
27823;DHT22;29019;47.630;8.262;2023-03-29T20:00:25;21.10;33.50
27823;DHT22;29019;47.630;8.262;2023-03-29T20:04:26;21.10;33.50
27823;DHT22;29019;47.630;8.262;2023-03-29T20:08:27;21.10;33.60
27823;DHT22;29019;47.630;8.262;2023-03-29T20:12:28;21.10;33.60
27823;DHT22;29019;47.630;8.262;2023-03-29T20:16:29;21.10;33.60
27823;DHT22;29019;47.630;8.262;2023-03-29T20:20:33;21.10;33.60
27823;DHT22;29019;47.630;8.262;2023-03-29T20:24:34;21.10;33.60
27823;DHT22;29019;47.630;8.262;2023-03-29T20:28:35;21.10;33.70
27823;DHT22;29019;47.630;8.262;2023-03-29T20:32:38;21.10;33.80
27823;DHT22;29019;47.630;8.262;2023-03-29T20:36:39;21.10;33.70
27823;DHT22;29019;47.630;8.262;2023-03-29T20:40:39;21.10;33.70
27823;DHT22;29019;47.630;8.262;2023-03-29T20:44:40;21.10;33.70
27823;DHT22;29019;47.630;8.262;2023-03-29T20:48:40;21.10;33.70
27823;DHT22;29019;47.630;8.262;2023-03-29T20:52:53;21.10;33.80
27823;DHT22;29019;47.630;8.262;2023-03-29T20:56:54;21.10;33.80
27823;DHT22;29019;47.630;8.262;2023-03-29T21:00:55;21.10;33.90
27823;DHT22;29019;47.630;8.262;2023-03-29T21:04:57;21.10;33.90
27823;DHT22;29019;47.630;8.262;2023-03-29T21:09:01;21.10;34.00
27823;DHT22;29019;47.630;8.262;2023-03-29T21:13:01;21.10;34.00
27823;DHT22;29019;47.630;8.262;2023-03-29T21:17:02;21.10;33.90
27823;DHT22;29019;47.630;8.262;2023-03-29T21:21:06;21.10;33.90
27823;DHT22;29019;47.630;8.262;2023-03-29T21:25:07;21.10;33.90
27823;DHT22;29019;47.630;8.262;2023-03-29T21:29:09;21.10;33.90
27823;DHT22;29019;47.630;8.262;2023-03-29T21:33:09;21.10;33.90
27823;DHT22;29019;47.630;8.262;2023-03-29T21:37:10;21.20;34.00
27823;DHT22;29019;47.630;8.262;2023-03-29T21:41:10;21.10;33.90
27823;DHT22;29019;47.630;8.262;2023-03-29T21:45:11;21.10;34.00
27823;DHT22;29019;47.630;8.262;2023-03-29T21:49:11;21.10;34.00
27823;DHT22;29019;47.630;8.262;2023-03-29T21:53:12;21.10;33.90
27823;DHT22;29019;47.630;8.262;2023-03-29T21:57:12;21.10;33.90
27823;DHT22;29019;47.630;8.262;2023-03-29T22:01:13;21.10;33.90
27823;DHT22;29019;47.630;8.262;2023-03-29T22:05:13;21.00;33.90
27823;DHT22;29019;47.630;8.262;2023-03-29T22:09:14;21.00;34.00
27823;DHT22;29019;47.630;8.262;2023-03-29T22:13:14;21.00;34.00
27823;DHT22;29019;47.630;8.262;2023-03-29T22:17:15;21.00;33.90
27823;DHT22;29019;47.630;8.262;2023-03-29T22:21:23;21.00;34.00
27823;DHT22;29019;47.630;8.262;2023-03-29T22:25:24;21.00;34.00
27823;DHT22;29019;47.630;8.262;2023-03-29T22:29:24;21.00;34.10
27823;DHT22;29019;47.630;8.262;2023-03-29T22:33:25;21.00;34.00
27823;DHT22;29019;47.630;8.262;2023-03-29T22:37:26;21.00;34.00
27823;DHT22;29019;47.630;8.262;2023-03-29T22:41:26;20.90;33.90
27823;DHT22;29019;47.630;8.262;2023-03-29T22:45:27;20.90;33.90
27823;DHT22;29019;47.630;8.262;2023-03-29T22:49:27;20.90;34.00
27823;DHT22;29019;47.630;8.262;2023-03-29T22:53:28;20.90;34.00
27823;DHT22;29019;47.630;8.262;2023-03-29T22:57:28;20.90;34.00
27823;DHT22;29019;47.630;8.262;2023-03-29T23:01:29;20.90;34.10
27823;DHT22;29019;47.630;8.262;2023-03-29T23:05:29;20.90;34.20
27823;DHT22;29019;47.630;8.262;2023-03-29T23:09:30;20.90;34.30
27823;DHT22;29019;47.630;8.262;2023-03-29T23:13:30;20.80;34.20
27823;DHT22;29019;47.630;8.262;2023-03-29T23:17:32;20.90;34.10
27823;DHT22;29019;47.630;8.262;2023-03-29T23:21:33;20.90;34.20
27823;DHT22;29019;47.630;8.262;2023-03-29T23:25:36;20.90;34.30
27823;DHT22;29019;47.630;8.262;2023-03-29T23:29:36;20.80;34.20
27823;DHT22;29019;47.630;8.262;2023-03-29T23:33:40;20.80;34.40
27823;DHT22;29019;47.630;8.262;2023-03-29T23:37:41;20.80;34.40
27823;DHT22;29019;47.630;8.262;2023-03-29T23:41:42;20.80;34.40
27823;DHT22;29019;47.630;8.262;2023-03-29T23:45:42;20.70;34.40
27823;DHT22;29019;47.630;8.262;2023-03-29T23:49:43;20.80;34.60
27823;DHT22;29019;47.630;8.262;2023-03-29T23:53:44;20.70;34.50
27823;DHT22;29019;47.630;8.262;2023-03-29T23:57:45;20.70;34.50
